CheckWX is a tool to help pilots better visualize weather data.  It is not intended as a substitute for an official pre-flight weather briefing.

21:03:29 UTC

DABC METAR
Mohamed Boudiaf International Airport
Constantine, Algeria
Current

33 mins ago

DABC 232030Z 36016G26KT 320V020 9999 SCT020 BKN026 09/06 Q1022
Observed
Feb-23 @ 20:30 UTC
Wind
  • 360° at 16 KTS
  • Gusting to 26 KTS
Visibility
10,000+ meters
Flight Rules
MVFR
Cloud Levels
  • Scattered at 2,000' AGL
  • Broken at 2,600' AGL
Temperature
C / 48°F
Dewpoint
C / 43°F
Humidity
82%
Altimeter
30.18" Hg
Pressure
1021.92 hPa
Previous

1 hour ago

DABC 232000Z 34012KT 9999 SCT020 BKN026 09/06 Q1022
Observed
Feb-23 @ 20:00 UTC
Wind
  • 340° at 12 KTS
Visibility
10,000+ meters
Flight Rules
MVFR
Cloud Levels
  • Scattered at 2,000' AGL
  • Broken at 2,600' AGL
Temperature
C / 48°F
Dewpoint
C / 43°F
Humidity
82%
Altimeter
30.18" Hg
Pressure
1021.92 hPa
Previous

2 hours ago

DABC 231930Z 34014KT 9999 SCT020 SCT026 09/06 Q1022
Observed
Feb-23 @ 19:30 UTC
Wind
  • 340° at 14 KTS
Visibility
10,000+ meters
Flight Rules
VFR
Cloud Levels
  • Scattered at 2,000' AGL
  • Scattered at 2,600' AGL
Temperature
C / 48°F
Dewpoint
C / 43°F
Humidity
82%
Altimeter
30.18" Hg
Pressure
1021.92 hPa